createdAt,value
2022-08-02T00:00:35.056Z,99.90
2022-08-02T00:03:03.045Z,99.90
2022-08-02T00:05:31.081Z,99.90
2022-08-02T00:07:59.087Z,99.90
2022-08-02T00:10:28.618Z,99.90
2022-08-02T00:12:58.625Z,99.90
2022-08-02T00:15:26.975Z,99.90
2022-08-02T00:17:54.887Z,99.90
2022-08-02T00:20:22.789Z,99.90
2022-08-02T00:22:50.675Z,99.90
2022-08-02T00:25:18.536Z,99.90
2022-08-02T00:27:47.749Z,99.90
2022-08-02T00:30:15.684Z,99.90
2022-08-02T00:32:43.575Z,99.90
2022-08-02T00:35:11.541Z,99.90
2022-08-02T00:37:40.846Z,99.90
2022-08-02T00:40:10.275Z,99.90
2022-08-02T00:42:39.374Z,99.90
2022-08-02T00:45:10.947Z,99.90
2022-08-02T00:47:38.869Z,99.90
2022-08-02T00:50:07.383Z,99.90
2022-08-02T00:52:35.270Z,99.90
2022-08-02T00:55:03.141Z,99.90
2022-08-02T00:57:31.009Z,99.90
2022-08-02T00:59:58.913Z,99.90
2022-08-02T01:02:28.178Z,99.90
2022-08-02T01:04:56.095Z,99.90
2022-08-02T01:07:24.069Z,99.90
2022-08-02T01:09:51.947Z,99.90
2022-08-02T01:12:19.897Z,99.90
2022-08-02T01:14:50.542Z,99.90
2022-08-02T01:17:23.859Z,99.90
2022-08-02T01:19:58.661Z,99.90
2022-08-02T01:23:01.484Z,99.90
2022-08-02T01:25:54.424Z,99.90
2022-08-02T01:28:38.809Z,99.90
2022-08-02T01:31:15.084Z,99.90
2022-08-02T01:33:48.525Z,99.90
2022-08-02T01:36:18.596Z,99.90
2022-08-02T01:38:50.146Z,99.90
2022-08-02T01:41:22.385Z,99.90
2022-08-02T01:43:56.488Z,99.90
2022-08-02T01:46:25.457Z,99.90
2022-08-02T01:48:55.751Z,99.90
2022-08-02T01:51:45.945Z,99.90
2022-08-02T01:54:16.434Z,99.90
2022-08-02T01:56:45.552Z,99.90
2022-08-02T01:59:19.608Z,99.90
2022-08-02T02:01:50.352Z,99.90
2022-08-02T02:04:20.678Z,99.90
2022-08-02T02:06:50.176Z,99.90
2022-08-02T02:09:18.810Z,99.90
2022-08-02T02:12:14.112Z,99.90
2022-08-02T02:14:40.589Z,99.90
2022-08-02T02:17:57.133Z,99.90
2022-08-02T02:20:01.938Z,99.90
2022-08-02T02:22:30.107Z,99.90
2022-08-02T02:24:58.714Z,99.90
2022-08-02T02:27:26.736Z,99.90
2022-08-02T02:29:57.422Z,99.90
2022-08-02T02:32:28.383Z,99.90
2022-08-02T02:34:57.888Z,99.90
2022-08-02T02:37:29.001Z,99.90
2022-08-02T02:39:58.257Z,99.90
2022-08-02T02:42:31.700Z,99.90
2022-08-02T02:45:01.093Z,99.90
2022-08-02T02:47:40.448Z,99.90
2022-08-02T02:50:11.344Z,99.90
2022-08-02T02:52:40.847Z,99.90
2022-08-02T02:55:11.037Z,99.90
2022-08-02T02:57:39.963Z,99.90
2022-08-02T03:00:12.928Z,99.90
2022-08-02T03:02:42.224Z,99.90
2022-08-02T03:05:12.089Z,99.90
2022-08-02T03:07:40.541Z,99.90
2022-08-02T03:10:09.725Z,99.90
2022-08-02T03:12:37.893Z,99.90
2022-08-02T03:15:08.068Z,99.90
2022-08-02T03:17:41.915Z,99.90
2022-08-02T03:20:14.867Z,99.90
2022-08-02T03:22:42.955Z,99.90
2022-08-02T03:25:11.898Z,99.90
2022-08-02T03:27:39.970Z,99.90
2022-08-02T03:30:11.547Z,99.90
2022-08-02T03:32:43.724Z,99.90
2022-08-02T03:35:16.597Z,99.90
2022-08-02T03:37:47.777Z,99.90
2022-08-02T03:40:15.849Z,99.90
2022-08-02T03:42:43.799Z,99.90
2022-08-02T03:45:14.748Z,99.90
2022-08-02T03:47:45.454Z,99.90
2022-08-02T03:50:13.916Z,99.90
2022-08-02T03:52:43.485Z,99.90
2022-08-02T03:55:13.558Z,99.90
2022-08-02T03:57:42.263Z,99.90
2022-08-02T04:00:14.205Z,99.90
2022-08-02T04:02:43.395Z,99.90
2022-08-02T04:05:11.306Z,99.90
2022-08-02T04:08:33.505Z,99.90
2022-08-02T04:10:27.610Z,99.90
2022-08-02T04:12:56.326Z,99.90
2022-08-02T04:15:25.202Z,99.90
2022-08-02T04:17:57.659Z,99.90
2022-08-02T04:20:29.101Z,99.90
2022-08-02T04:23:03.014Z,99.90
2022-08-02T04:25:35.722Z,99.90
2022-08-02T04:28:17.157Z,99.90
2022-08-02T04:30:47.674Z,99.90
2022-08-02T04:33:17.575Z,99.90
2022-08-02T04:35:46.168Z,99.90
2022-08-02T04:38:14.773Z,99.90
2022-08-02T04:40:50.713Z,99.90
2022-08-02T04:43:19.859Z,99.90
2022-08-02T04:45:49.334Z,99.90
2022-08-02T04:48:18.659Z,99.90
2022-08-02T04:50:46.667Z,99.90
2022-08-02T04:53:14.717Z,99.90
2022-08-02T04:55:42.763Z,99.90
2022-08-02T04:58:37.354Z,99.90
2022-08-02T05:00:58.606Z,99.90
2022-08-02T05:03:27.933Z,99.90
2022-08-02T05:05:55.907Z,99.90
2022-08-02T05:08:23.820Z,99.90
2022-08-02T05:10:51.783Z,99.90
2022-08-02T05:13:20.100Z,99.90
2022-08-02T05:15:50.495Z,99.90
2022-08-02T05:18:18.407Z,99.90
2022-08-02T05:20:47.722Z,99.90
2022-08-02T05:23:15.589Z,99.90
2022-08-02T05:25:43.519Z,99.90
2022-08-02T05:28:11.922Z,99.90
2022-08-02T05:30:40.217Z,99.90
2022-08-02T05:33:08.388Z,99.90
2022-08-02T05:35:36.351Z,99.90
2022-08-02T05:38:05.725Z,99.90
2022-08-02T05:40:54.302Z,99.90
2022-08-02T05:43:24.214Z,99.90
2022-08-02T05:45:53.661Z,99.90
2022-08-02T05:48:24.521Z,99.90
2022-08-02T05:51:03.380Z,99.90
2022-08-02T05:53:39.861Z,99.90
2022-08-02T05:56:17.780Z,99.90
2022-08-02T05:58:52.230Z,99.90
2022-08-02T06:01:29.371Z,97.70
2022-08-02T06:04:00.461Z,95.70
2022-08-02T06:06:30.817Z,94.80
2022-08-02T06:09:03.322Z,92.60
2022-08-02T06:11:36.707Z,88.80
2022-08-02T06:14:06.170Z,85.90
2022-08-02T06:16:41.217Z,82.90
2022-08-02T06:19:12.714Z,81.00
2022-08-02T06:22:33.597Z,77.50
2022-08-02T06:24:33.610Z,78.20
2022-08-02T06:27:03.311Z,79.20
2022-08-02T06:29:38.457Z,79.20
2022-08-02T06:32:08.866Z,79.30
2022-08-02T06:34:38.411Z,79.10
2022-08-02T06:37:15.989Z,76.20
2022-08-02T06:39:50.051Z,77.20
2022-08-02T06:42:25.574Z,76.20
2022-08-02T06:44:58.055Z,73.20
2022-08-02T06:47:27.254Z,72.70
2022-08-02T06:49:56.687Z,71.70
2022-08-02T06:52:29.817Z,71.70
2022-08-02T06:55:01.476Z,69.30
2022-08-02T06:57:30.629Z,67.00
2022-08-02T07:00:01.791Z,65.70
2022-08-02T07:02:30.306Z,66.90
2022-08-02T07:04:58.505Z,64.90
2022-08-02T07:07:27.759Z,63.60
2022-08-02T07:10:00.191Z,61.70
2022-08-02T07:12:32.698Z,66.50
2022-08-02T07:15:02.189Z,68.70
2022-08-02T07:17:30.218Z,67.80
2022-08-02T07:19:58.906Z,68.00
2022-08-02T07:22:28.008Z,68.90
2022-08-02T07:24:57.402Z,69.20
2022-08-02T07:27:25.555Z,69.30
2022-08-02T07:29:55.320Z,69.40
2022-08-02T07:32:25.447Z,66.90
2022-08-02T07:34:55.191Z,66.10
2022-08-02T07:37:53.358Z,64.30
2022-08-02T07:40:15.250Z,62.50
2022-08-02T07:42:49.619Z,62.20
2022-08-02T07:45:19.147Z,61.70
2022-08-02T07:47:47.574Z,59.10
2022-08-02T07:50:18.106Z,59.60
2022-08-02T07:52:46.524Z,57.60
2022-08-02T07:55:16.065Z,56.80
2022-08-02T07:57:46.518Z,55.70
2022-08-02T08:00:17.360Z,56.10
2022-08-02T08:02:47.561Z,54.90
2022-08-02T08:05:15.954Z,54.50
2022-08-02T08:07:44.175Z,55.60
2022-08-02T08:10:12.400Z,56.20
2022-08-02T08:12:40.353Z,55.90
2022-08-02T08:15:09.157Z,54.40
2022-08-02T08:17:38.304Z,52.80
2022-08-02T08:20:11.755Z,51.00
2022-08-02T08:22:42.120Z,48.40
2022-08-02T08:25:10.409Z,47.30
2022-08-02T08:27:38.280Z,45.50
2022-08-02T08:30:07.970Z,46.50
2022-08-02T08:32:35.856Z,48.60
2022-08-02T08:35:06.863Z,46.90
2022-08-02T08:37:36.961Z,46.20
2022-08-02T08:40:06.336Z,46.50
2022-08-02T08:42:37.382Z,46.90
2022-08-02T08:45:10.248Z,46.70
2022-08-02T08:47:41.519Z,49.20
2022-08-02T08:50:18.829Z,50.70
2022-08-02T08:52:55.463Z,49.50
2022-08-02T08:55:27.146Z,48.50
2022-08-02T08:57:56.276Z,48.00
2022-08-02T09:00:24.182Z,49.60
2022-08-02T09:02:52.166Z,49.40
2022-08-02T09:05:20.176Z,51.20
2022-08-02T09:07:52.769Z,52.60
2022-08-02T09:10:37.692Z,49.30
2022-08-02T09:13:38.283Z,49.80
2022-08-02T09:16:10.962Z,48.80
2022-08-02T09:18:44.462Z,47.50
2022-08-02T09:21:13.203Z,48.30
2022-08-02T09:23:45.218Z,46.30
2022-08-02T09:26:14.913Z,46.80
2022-08-02T09:28:47.991Z,44.80
2022-08-02T09:31:18.074Z,45.00
2022-08-02T09:33:51.189Z,45.00
2022-08-02T09:36:19.569Z,45.50
2022-08-02T09:38:56.968Z,46.60
2022-08-02T09:41:26.838Z,43.70
2022-08-02T09:44:03.830Z,43.80
2022-08-02T09:46:38.279Z,43.70
2022-08-02T09:49:09.123Z,44.00
2022-08-02T09:51:39.389Z,43.90
2022-08-02T09:54:10.039Z,43.90
2022-08-02T09:56:43.544Z,45.30
2022-08-02T09:59:11.983Z,48.50
2022-08-02T10:01:43.214Z,46.80
2022-08-02T10:04:24.656Z,45.10
2022-08-02T10:06:54.222Z,43.60
2022-08-02T10:09:23.842Z,41.50
2022-08-02T10:11:53.289Z,45.00
2022-08-02T10:14:23.303Z,48.20
2022-08-02T10:16:52.772Z,49.60
2022-08-02T10:19:59.574Z,49.60
2022-08-02T10:22:13.031Z,47.70
2022-08-02T10:24:48.031Z,44.10
2022-08-02T10:27:19.862Z,45.70
2022-08-02T10:29:54.237Z,48.50
2022-08-02T10:32:28.737Z,49.10
2022-08-02T10:35:02.668Z,47.30
2022-08-02T10:37:51.826Z,43.20
2022-08-02T10:40:24.117Z,46.10
2022-08-02T10:42:53.444Z,44.40
2022-08-02T10:45:23.549Z,43.80
2022-08-02T10:48:08.848Z,44.50
2022-08-02T10:50:55.677Z,45.00
2022-08-02T10:53:28.331Z,43.00
2022-08-02T10:55:59.797Z,42.20
2022-08-02T10:58:30.251Z,43.60
2022-08-02T11:01:00.075Z,41.80
2022-08-02T11:03:40.766Z,43.50
2022-08-02T11:06:24.986Z,42.40
2022-08-02T11:09:32.295Z,42.40
2022-08-02T11:12:07.759Z,39.80
2022-08-02T11:14:37.198Z,40.60
2022-08-02T11:17:13.779Z,43.00
2022-08-02T11:20:16.581Z,45.50
2022-08-02T11:22:46.857Z,45.70
2022-08-02T11:26:00.976Z,45.10
2022-08-02T11:28:25.595Z,42.90
2022-08-02T11:31:02.599Z,42.60
2022-08-02T11:33:34.383Z,39.90
2022-08-02T11:36:04.477Z,39.40
2022-08-02T11:38:32.891Z,39.40
2022-08-02T11:41:06.172Z,39.60
2022-08-02T11:43:39.876Z,38.90
2022-08-02T11:46:14.682Z,39.80
2022-08-02T11:48:44.489Z,39.90
2022-08-02T11:51:14.696Z,41.10
2022-08-02T11:53:47.253Z,41.90
2022-08-02T11:56:21.867Z,41.20
2022-08-02T11:59:05.108Z,42.00
2022-08-02T12:01:36.807Z,45.40
2022-08-02T12:04:16.576Z,49.70
2022-08-02T12:06:45.256Z,50.90
2022-08-02T12:09:17.863Z,53.00
2022-08-02T12:11:50.814Z,51.00
2022-08-02T12:14:20.553Z,53.20
2022-08-02T12:17:07.257Z,52.30
2022-08-02T12:19:36.264Z,53.00
2022-08-02T12:22:12.882Z,56.80
2022-08-02T12:24:42.475Z,57.60
2022-08-02T12:27:10.694Z,59.50
2022-08-02T12:29:55.900Z,58.60
2022-08-02T12:32:27.121Z,59.20
2022-08-02T12:35:09.913Z,59.20
2022-08-02T12:37:39.551Z,58.70
2022-08-02T12:40:25.287Z,58.60
2022-08-02T12:42:56.320Z,59.00
2022-08-02T12:45:26.002Z,59.40
2022-08-02T12:47:55.863Z,57.30
2022-08-02T12:50:29.457Z,58.70
2022-08-02T12:53:09.453Z,59.90
2022-08-02T12:56:02.085Z,58.90
2022-08-02T12:58:29.499Z,60.20
2022-08-02T13:01:00.911Z,59.20
2022-08-02T13:04:11.519Z,60.70
2022-08-02T13:06:32.230Z,63.60
2022-08-02T13:09:13.914Z,59.00
2022-08-02T13:11:43.333Z,60.30
2022-08-02T13:14:12.216Z,61.70
2022-08-02T13:16:42.307Z,59.40
2022-08-02T13:19:10.678Z,59.80
2022-08-02T13:21:41.605Z,58.90
2022-08-02T13:24:39.286Z,59.20
2022-08-02T13:27:14.917Z,60.40
2022-08-02T13:29:42.814Z,61.00
2022-08-02T13:32:12.346Z,59.20
2022-08-02T13:34:41.033Z,61.20
2022-08-02T13:37:09.422Z,58.70
2022-08-02T13:39:37.575Z,62.20
2022-08-02T13:42:06.011Z,62.30
2022-08-02T13:44:34.203Z,61.30
2022-08-02T13:47:02.770Z,58.50
2022-08-02T13:49:50.643Z,61.70
2022-08-02T13:52:19.703Z,59.90
2022-08-02T13:54:47.586Z,58.50
2022-08-02T13:57:15.550Z,61.20
2022-08-02T13:59:57.560Z,61.70
2022-08-02T14:02:27.937Z,60.40
2022-08-02T14:04:57.763Z,59.30
2022-08-02T14:07:25.672Z,60.50
2022-08-02T14:09:53.791Z,63.10
2022-08-02T14:12:21.714Z,57.50
2022-08-02T14:14:49.633Z,57.60
2022-08-02T14:17:18.934Z,59.60
2022-08-02T14:19:47.051Z,62.50
2022-08-02T14:22:16.315Z,60.70
2022-08-02T14:24:44.472Z,58.70
2022-08-02T14:27:12.707Z,60.10
2022-08-02T14:29:40.786Z,61.40
2022-08-02T14:32:09.196Z,60.00
2022-08-02T14:34:37.264Z,60.00
2022-08-02T14:37:05.275Z,61.10
2022-08-02T14:39:42.962Z,60.40
2022-08-02T14:42:22.760Z,60.70
2022-08-02T14:44:50.848Z,61.10
2022-08-02T14:47:18.852Z,61.30
2022-08-02T14:49:50.050Z,60.30
2022-08-02T14:52:19.583Z,59.80
2022-08-02T14:54:49.155Z,59.60
2022-08-02T14:57:17.569Z,59.40
2022-08-02T14:59:45.518Z,60.50
2022-08-02T15:02:14.409Z,60.30
2022-08-02T15:04:43.823Z,61.00
2022-08-02T15:07:14.140Z,59.70
2022-08-02T15:09:42.137Z,59.70
2022-08-02T15:12:12.997Z,59.60
2022-08-02T15:14:41.695Z,62.20
2022-08-02T15:17:10.483Z,61.20
2022-08-02T15:19:57.621Z,62.80
2022-08-02T15:22:28.917Z,60.10
2022-08-02T15:24:57.091Z,59.70
2022-08-02T15:27:26.532Z,61.90
2022-08-02T15:29:59.995Z,58.90
2022-08-02T15:32:28.658Z,59.30
2022-08-02T15:34:56.766Z,61.10
2022-08-02T15:37:25.408Z,59.60
2022-08-02T15:39:59.040Z,58.90
2022-08-02T15:42:30.501Z,60.20
2022-08-02T15:44:59.129Z,60.40
2022-08-02T15:47:27.474Z,61.80
2022-08-02T15:49:55.983Z,61.80
2022-08-02T15:52:26.620Z,63.50
2022-08-02T15:54:54.753Z,62.80
2022-08-02T15:57:24.895Z,62.70
2022-08-02T15:59:54.517Z,62.10
2022-08-02T16:02:22.943Z,61.90
2022-08-02T16:04:50.981Z,62.20
2022-08-02T16:07:19.138Z,62.00
2022-08-02T16:09:47.161Z,61.60
2022-08-02T16:12:15.684Z,61.10
2022-08-02T16:14:45.198Z,61.50
2022-08-02T16:17:14.481Z,59.70
2022-08-02T16:20:02.631Z,61.60
2022-08-02T16:22:30.567Z,59.60
2022-08-02T16:24:58.450Z,61.30
2022-08-02T16:27:26.623Z,60.40
2022-08-02T16:29:54.511Z,60.50
2022-08-02T16:32:23.803Z,60.60
2022-08-02T16:35:08.565Z,60.10
2022-08-02T16:37:51.829Z,62.40
2022-08-02T16:40:21.018Z,61.50
2022-08-02T16:42:50.627Z,61.40
2022-08-02T16:45:20.688Z,61.10
2022-08-02T16:47:55.903Z,59.90
2022-08-02T16:50:27.172Z,59.60
2022-08-02T16:52:57.087Z,59.80
2022-08-02T16:55:26.114Z,59.60
2022-08-02T16:57:57.311Z,59.60
2022-08-02T17:00:25.287Z,60.00
2022-08-02T17:02:59.496Z,59.60
2022-08-02T17:05:37.982Z,59.20
2022-08-02T17:08:18.190Z,59.40
2022-08-02T17:10:46.427Z,60.00
2022-08-02T17:13:14.680Z,59.70
2022-08-02T17:16:17.207Z,60.80
2022-08-02T17:18:34.187Z,61.00
2022-08-02T17:21:05.915Z,60.20
2022-08-02T17:24:04.418Z,61.50
2022-08-02T17:26:22.785Z,61.60
2022-08-02T17:29:14.601Z,61.60
2022-08-02T17:31:43.704Z,62.20
2022-08-02T17:34:16.800Z,62.30
2022-08-02T17:36:45.229Z,61.60
2022-08-02T17:39:17.945Z,61.20
2022-08-02T17:41:49.099Z,61.60
2022-08-02T17:44:37.287Z,62.00
2022-08-02T17:47:08.489Z,62.10
2022-08-02T17:49:43.974Z,64.50
2022-08-02T17:52:50.558Z,63.40
2022-08-02T17:55:03.804Z,65.10
2022-08-02T17:57:58.142Z,66.70
2022-08-02T18:00:20.066Z,66.40
2022-08-02T18:02:50.492Z,67.50
2022-08-02T18:05:39.250Z,67.60
2022-08-02T18:08:09.957Z,67.10
2022-08-02T18:10:39.272Z,67.10
2022-08-02T18:13:07.308Z,68.60
2022-08-02T18:15:35.724Z,70.70
2022-08-02T18:18:03.999Z,70.00
2022-08-02T18:20:33.391Z,70.10
2022-08-02T18:23:01.368Z,69.50
2022-08-02T18:25:37.206Z,68.30
2022-08-02T18:28:12.571Z,69.20
2022-08-02T18:30:40.756Z,71.10
2022-08-02T18:33:57.557Z,72.90
2022-08-02T18:35:58.158Z,73.00
2022-08-02T18:38:28.301Z,74.90
2022-08-02T18:40:58.688Z,75.00
2022-08-02T18:43:29.550Z,76.80
2022-08-02T18:46:05.451Z,78.00
2022-08-02T18:48:44.227Z,78.30
2022-08-02T18:51:18.740Z,79.50
2022-08-02T18:53:48.862Z,80.20
2022-08-02T18:56:20.418Z,80.70
2022-08-02T18:58:52.971Z,81.40
2022-08-02T19:01:31.328Z,84.00
2022-08-02T19:04:00.788Z,79.10
2022-08-02T19:06:30.555Z,78.90
2022-08-02T19:09:05.909Z,78.20
2022-08-02T19:11:50.248Z,77.30
2022-08-02T19:14:24.106Z,76.70
2022-08-02T19:16:56.942Z,78.00
2022-08-02T19:19:29.024Z,78.30
2022-08-02T19:22:17.740Z,78.30
2022-08-02T19:24:51.508Z,81.50
2022-08-02T19:27:25.913Z,82.80
2022-08-02T19:29:54.097Z,85.20
2022-08-02T19:32:41.646Z,87.80
2022-08-02T19:35:19.711Z,88.00
2022-08-02T19:38:08.574Z,89.80
2022-08-02T19:40:38.565Z,89.90
2022-08-02T19:44:24.792Z,90.50
2022-08-02T19:45:57.178Z,90.60
2022-08-02T19:48:27.210Z,91.40
2022-08-02T19:51:01.148Z,92.10
2022-08-02T19:53:47.888Z,93.20
2022-08-02T19:56:20.315Z,93.80
2022-08-02T19:58:50.246Z,95.10
2022-08-02T20:01:25.319Z,96.60
2022-08-02T20:03:55.886Z,97.40
2022-08-02T20:06:29.669Z,98.40
2022-08-02T20:09:01.174Z,99.40
2022-08-02T20:14:17.982Z,99.90
2022-08-02T20:16:54.817Z,99.90
2022-08-02T20:19:22.706Z,99.90
2022-08-02T20:21:56.741Z,99.90
2022-08-02T20:24:29.606Z,99.90
2022-08-02T20:26:59.233Z,99.90
2022-08-02T20:32:21.412Z,99.90
2022-08-02T20:34:51.073Z,99.90
2022-08-02T20:37:59.343Z,99.90
2022-08-02T20:40:17.286Z,99.90
2022-08-02T20:42:47.868Z,99.90
2022-08-02T20:45:35.217Z,99.90
2022-08-02T20:48:03.179Z,99.90
2022-08-02T20:50:51.420Z,99.90
2022-08-02T20:53:23.846Z,99.90
2022-08-02T20:55:56.579Z,99.90
2022-08-02T20:58:26.514Z,99.90
2022-08-02T21:00:59.147Z,99.90
2022-08-02T21:03:39.412Z,99.90
2022-08-02T21:06:09.433Z,99.90
2022-08-02T21:08:38.309Z,99.90
2022-08-02T21:11:09.372Z,99.90
2022-08-02T21:13:46.643Z,99.90
2022-08-02T21:16:19.002Z,99.90
2022-08-02T21:18:55.734Z,99.90
2022-08-02T21:21:28.338Z,99.90
2022-08-02T21:23:58.766Z,99.90
2022-08-02T21:26:30.597Z,99.90
2022-08-02T21:29:04.020Z,99.90
2022-08-02T21:31:35.449Z,99.90
2022-08-02T21:34:11.366Z,99.90
2022-08-02T21:36:50.442Z,99.90
2022-08-02T21:39:19.114Z,99.90
2022-08-02T21:41:49.975Z,99.90
2022-08-02T21:44:19.409Z,99.90
2022-08-02T21:46:49.085Z,99.90
2022-08-02T21:49:18.565Z,99.90
2022-08-02T21:51:49.520Z,99.90
2022-08-02T21:54:21.371Z,99.90
2022-08-02T21:56:52.858Z,99.90
2022-08-02T21:59:25.689Z,99.90
2022-08-02T22:01:56.746Z,99.90
2022-08-02T22:04:25.324Z,99.90
2022-08-02T22:06:54.883Z,99.90
2022-08-02T22:09:44.013Z,99.90
2022-08-02T22:12:17.743Z,99.90
2022-08-02T22:14:55.118Z,99.90
2022-08-02T22:17:51.192Z,99.90
2022-08-02T22:20:14.057Z,99.90
2022-08-02T22:22:43.337Z,99.90
2022-08-02T22:25:26.918Z,99.90
2022-08-02T22:28:11.917Z,99.90
2022-08-02T22:30:50.553Z,99.90
2022-08-02T22:34:00.975Z,99.90
2022-08-02T22:36:30.465Z,99.90
2022-08-02T22:38:58.887Z,99.90
2022-08-02T22:42:01.597Z,99.90
2022-08-02T22:44:16.915Z,99.90
2022-08-02T22:46:47.179Z,99.90
2022-08-02T22:49:38.707Z,99.90
2022-08-02T22:52:06.687Z,99.90
2022-08-02T22:54:34.586Z,99.90
2022-08-02T22:57:02.466Z,99.90
2022-08-02T22:58:54.799Z,99.90
2022-08-02T22:59:07.950Z,99.90
2022-08-02T22:59:39.703Z,99.90
2022-08-02T23:02:08.175Z,99.90
2022-08-02T23:04:36.551Z,99.90
2022-08-02T23:07:05.185Z,99.90
2022-08-02T23:09:33.152Z,99.90
2022-08-02T23:12:01.120Z,99.90
2022-08-02T23:14:29.026Z,99.90
2022-08-02T23:17:15.977Z,99.90
2022-08-02T23:19:52.966Z,99.90
2022-08-02T23:22:29.267Z,99.90
2022-08-02T23:24:57.732Z,99.90
2022-08-02T23:27:26.158Z,99.90
2022-08-02T23:29:54.040Z,99.90
2022-08-02T23:32:25.964Z,99.90
2022-08-02T23:34:54.062Z,99.90
2022-08-02T23:37:22.596Z,99.90
2022-08-02T23:39:50.717Z,99.90
2022-08-02T23:42:18.981Z,99.90
2022-08-02T23:44:46.997Z,99.90
2022-08-02T23:47:16.775Z,99.90
2022-08-02T23:49:46.223Z,99.90
2022-08-02T23:52:14.537Z,99.90
2022-08-02T23:54:42.657Z,99.90
2022-08-02T23:57:20.882Z,99.90
2022-08-02T23:59:50.501Z,99.90
